createdAt,value
2023-03-06T00:02:16.513Z,7.82
2023-03-06T00:05:19.173Z,8.25
2023-03-06T00:08:21.676Z,9.45
2023-03-06T00:11:24.481Z,8.77
2023-03-06T00:14:27.115Z,7.95
2023-03-06T00:17:29.875Z,8.82
2023-03-06T00:20:33.166Z,8.88
2023-03-06T00:23:36.377Z,8.88
2023-03-06T00:26:39.497Z,8.85
2023-03-06T00:29:42.317Z,7.90
2023-03-06T00:32:44.849Z,8.07
2023-03-06T00:35:47.729Z,9.05
2023-03-06T00:38:50.238Z,8.18
2023-03-06T00:41:53.323Z,8.85
2023-03-06T00:44:55.763Z,8.30
2023-03-06T00:47:58.580Z,8.93
2023-03-06T00:51:01.278Z,9.27
2023-03-06T00:54:03.844Z,8.00
2023-03-06T00:57:06.111Z,8.82
2023-03-06T01:00:12.314Z,7.87
2023-03-06T01:03:14.897Z,8.77
2023-03-06T01:06:17.640Z,8.38
2023-03-06T01:09:20.020Z,9.05
2023-03-06T01:12:23.585Z,7.47
2023-03-06T01:15:26.333Z,9.25
2023-03-06T01:18:29.208Z,9.35
2023-03-06T01:21:32.293Z,8.50
2023-03-06T01:24:34.880Z,9.43
2023-03-06T01:27:37.120Z,8.98
2023-03-06T01:30:40.185Z,8.93
2023-03-06T01:33:42.446Z,7.55
2023-03-06T01:36:44.956Z,7.40
2023-03-06T01:39:47.491Z,7.93
2023-03-06T01:42:50.939Z,7.40
2023-03-06T01:46:30.854Z,7.25
2023-03-06T01:49:33.561Z,6.80
2023-03-06T01:52:43.613Z,7.65
2023-03-06T01:55:46.651Z,6.93
2023-03-06T01:58:49.717Z,7.05
2023-03-06T02:01:54.114Z,7.05
2023-03-06T02:04:57.556Z,8.25
2023-03-06T02:08:02.584Z,7.32
2023-03-06T02:11:08.147Z,5.85
2023-03-06T02:14:16.207Z,6.97
2023-03-06T02:17:21.104Z,6.10
2023-03-06T02:20:37.397Z,5.95
2023-03-06T02:23:56.057Z,6.20
2023-03-06T02:27:00.923Z,6.85
2023-03-06T02:30:09.508Z,7.15
2023-03-06T02:33:15.200Z,6.40
2023-03-06T02:36:18.067Z,6.72
2023-03-06T02:39:25.213Z,7.85
2023-03-06T02:42:29.143Z,7.03
2023-03-06T02:45:38.142Z,7.68
2023-03-06T02:48:41.513Z,7.25
2023-03-06T02:51:44.619Z,8.25
2023-03-06T02:54:47.586Z,6.85
2023-03-06T02:57:50.871Z,8.45
2023-03-06T03:00:54.645Z,7.05
2023-03-06T03:03:57.059Z,7.30
2023-03-06T03:07:00.245Z,6.75
2023-03-06T03:10:04.247Z,7.53
2023-03-06T03:13:07.714Z,5.57
2023-03-06T03:16:15.481Z,5.72
2023-03-06T03:19:19.634Z,5.25
2023-03-06T03:22:22.138Z,6.22
2023-03-06T03:25:26.226Z,5.35
2023-03-06T03:28:30.253Z,5.32
2023-03-06T03:31:33.181Z,5.60
2023-03-06T03:34:36.748Z,5.45
2023-03-06T03:37:39.847Z,5.57
2023-03-06T03:40:42.214Z,5.22
2023-03-06T03:43:45.492Z,5.15
2023-03-06T03:46:47.663Z,5.72
2023-03-06T03:49:51.121Z,5.55
2023-03-06T03:52:54.704Z,5.68
2023-03-06T03:55:57.751Z,5.28
2023-03-06T03:59:00.380Z,4.60
2023-03-06T04:02:04.891Z,5.32
2023-03-06T04:05:11.038Z,5.75
2023-03-06T04:08:13.855Z,5.68
2023-03-06T04:11:17.004Z,5.20
2023-03-06T04:14:19.794Z,6.12
2023-03-06T04:17:22.592Z,5.65
2023-03-06T04:20:26.113Z,6.43
2023-03-06T04:23:28.716Z,5.87
2023-03-06T04:26:30.971Z,5.60
2023-03-06T04:29:34.365Z,5.03
2023-03-06T04:32:37.495Z,5.62
2023-03-06T04:35:40.843Z,5.35
2023-03-06T04:38:44.441Z,4.75
2023-03-06T04:41:47.554Z,4.65
2023-03-06T04:44:50.041Z,6.00
2023-03-06T04:47:53.077Z,5.55
2023-03-06T04:50:55.216Z,4.97
2023-03-06T04:53:58.145Z,5.15
2023-03-06T04:57:00.618Z,5.15
2023-03-06T05:00:08.859Z,5.85
2023-03-06T05:03:12.555Z,5.90
2023-03-06T05:06:16.137Z,6.40
2023-03-06T05:09:18.305Z,6.95
2023-03-06T05:12:20.896Z,7.07
2023-03-06T05:15:23.337Z,7.00
2023-03-06T05:18:25.779Z,6.18
2023-03-06T05:21:28.015Z,6.57
2023-03-06T05:24:30.677Z,7.00
2023-03-06T05:27:33.080Z,7.22
2023-03-06T05:30:35.900Z,7.70
2023-03-06T05:33:38.082Z,6.82
2023-03-06T05:36:40.695Z,10.82
2023-03-06T05:39:42.908Z,13.45
2023-03-06T05:42:45.809Z,14.70
2023-03-06T05:45:50.325Z,17.20
2023-03-06T05:48:57.741Z,18.10
2023-03-06T05:52:00.965Z,23.15
2023-03-06T05:55:07.541Z,22.83
2023-03-06T05:58:09.826Z,21.30
2023-03-06T06:01:18.834Z,22.35
2023-03-06T06:04:22.647Z,21.27
2023-03-06T06:07:24.888Z,19.27
2023-03-06T06:10:27.383Z,20.17
2023-03-06T06:13:29.746Z,20.08
2023-03-06T06:16:32.237Z,22.08
2023-03-06T06:19:34.612Z,19.90
2023-03-06T06:22:40.405Z,18.10
2023-03-06T06:25:42.720Z,15.05
2023-03-06T06:28:45.664Z,14.45
2023-03-06T06:31:48.520Z,14.20
2023-03-06T06:34:51.193Z,13.93
2023-03-06T06:37:53.473Z,14.65
2023-03-06T06:41:27.190Z,13.25
2023-03-06T06:44:19.703Z,11.95
2023-03-06T06:47:24.827Z,12.18
2023-03-06T06:50:27.708Z,11.77
2023-03-06T06:53:30.649Z,10.38
2023-03-06T06:56:32.864Z,9.52
2023-03-06T06:59:35.424Z,10.90
2023-03-06T07:02:37.748Z,11.40
2023-03-06T07:05:40.518Z,11.07
2023-03-06T07:08:43.074Z,9.55
2023-03-06T07:11:48.435Z,9.73
2023-03-06T07:14:50.800Z,9.90
2023-03-06T07:17:53.582Z,10.23
2023-03-06T07:20:56.854Z,9.75
2023-03-06T07:24:00.714Z,9.93
2023-03-06T07:27:03.083Z,9.27
2023-03-06T07:30:07.101Z,8.27
2023-03-06T07:33:09.908Z,9.00
2023-03-06T07:36:13.897Z,9.75
2023-03-06T07:39:16.408Z,8.57
2023-03-06T07:42:19.741Z,8.15
2023-03-06T07:45:23.763Z,7.35
2023-03-06T07:48:27.476Z,6.70
2023-03-06T07:51:30.300Z,5.85
2023-03-06T07:54:41.113Z,6.90
2023-03-06T07:57:43.670Z,6.12
2023-03-06T08:00:46.797Z,6.40
2023-03-06T08:03:50.520Z,6.22
2023-03-06T08:06:57.721Z,7.07
2023-03-06T08:10:01.136Z,7.25
2023-03-06T08:13:04.684Z,6.95
2023-03-06T08:16:08.575Z,7.22
2023-03-06T08:19:11.049Z,6.85
2023-03-06T08:22:14.570Z,6.95
2023-03-06T08:25:17.362Z,6.60
2023-03-06T08:28:19.995Z,7.15
2023-03-06T08:31:32.939Z,6.97
2023-03-06T08:34:35.820Z,6.35
2023-03-06T08:37:38.397Z,6.78
2023-03-06T08:40:41.772Z,7.30
2023-03-06T08:43:44.117Z,6.12
2023-03-06T08:46:47.198Z,6.43
2023-03-06T08:49:49.528Z,6.30
2023-03-06T08:52:52.377Z,6.32
2023-03-06T08:55:55.016Z,6.95
2023-03-06T08:58:59.468Z,6.95
2023-03-06T09:02:01.941Z,6.65
2023-03-06T09:05:07.366Z,6.72
2023-03-06T09:08:09.911Z,7.30
2023-03-06T09:11:14.266Z,7.22
2023-03-06T09:14:16.543Z,6.43
2023-03-06T09:17:19.405Z,6.93
2023-03-06T09:20:22.101Z,6.20
2023-03-06T09:23:24.700Z,7.53
2023-03-06T09:26:39.754Z,6.95
2023-03-06T09:29:47.707Z,6.90
2023-03-06T09:32:50.423Z,6.82
2023-03-06T09:35:57.147Z,7.70
2023-03-06T09:38:59.498Z,6.93
2023-03-06T09:42:02.622Z,8.75
2023-03-06T09:45:05.551Z,7.07
2023-03-06T09:48:15.659Z,8.52
2023-03-06T09:51:22.686Z,7.75
2023-03-06T09:54:37.033Z,7.68
2023-03-06T09:57:52.545Z,8.25
2023-03-06T10:01:14.237Z,8.30
2023-03-06T10:04:34.727Z,8.35
2023-03-06T10:07:46.092Z,8.65
2023-03-06T10:10:58.690Z,8.70
2023-03-06T10:14:16.063Z,9.45
2023-03-06T10:17:21.850Z,9.05
2023-03-06T10:20:35.899Z,9.10
2023-03-06T10:23:53.478Z,8.32
2023-03-06T10:27:10.523Z,9.32
2023-03-06T10:30:50.476Z,8.15
2023-03-06T10:34:15.824Z,8.70
2023-03-06T10:37:21.807Z,8.77
2023-03-06T10:40:35.697Z,8.48
2023-03-06T10:43:38.509Z,10.15
2023-03-06T10:46:47.399Z,9.07
2023-03-06T10:49:59.781Z,8.27
2023-03-06T10:53:07.335Z,8.25
2023-03-06T10:56:10.072Z,8.32
2023-03-06T10:59:20.353Z,8.88
2023-03-06T11:02:32.878Z,8.05
2023-03-06T11:05:36.033Z,8.23
2023-03-06T11:08:39.798Z,7.65
2023-03-06T11:11:42.377Z,8.77
2023-03-06T11:14:45.030Z,7.62
2023-03-06T11:18:04.554Z,7.90
2023-03-06T11:21:25.840Z,9.07
2023-03-06T11:24:39.609Z,8.55
2023-03-06T11:27:44.874Z,9.13
2023-03-06T11:30:52.070Z,8.40
2023-03-06T11:34:03.296Z,8.85
2023-03-06T11:37:21.743Z,8.60
2023-03-06T11:40:56.028Z,8.68
2023-03-06T11:44:13.845Z,8.68
2023-03-06T11:47:26.174Z,10.63
2023-03-06T11:50:35.897Z,9.82
2023-03-06T11:53:40.108Z,8.88
2023-03-06T11:57:02.223Z,9.63
2023-03-06T12:00:04.926Z,9.57
2023-03-06T12:03:40.310Z,9.73
2023-03-06T12:06:57.729Z,9.82
2023-03-06T12:10:12.997Z,9.73
2023-03-06T12:13:20.613Z,8.85
2023-03-06T12:16:41.959Z,9.05
2023-03-06T12:19:44.646Z,9.25
2023-03-06T12:23:14.545Z,8.68
2023-03-06T12:26:35.233Z,9.60
2023-03-06T12:29:40.261Z,9.90
2023-03-06T12:32:57.591Z,9.52
2023-03-06T12:36:11.413Z,10.27
2023-03-06T12:39:50.398Z,8.88
2023-03-06T12:43:18.632Z,8.85
2023-03-06T12:46:26.807Z,9.50
2023-03-06T12:49:33.343Z,9.40
2023-03-06T12:52:36.336Z,10.40
2023-03-06T12:55:45.723Z,9.55
2023-03-06T12:58:53.061Z,10.10
2023-03-06T13:02:24.704Z,9.52
2023-03-06T13:05:52.873Z,10.00
2023-03-06T13:09:26.603Z,10.60
2023-03-06T13:12:49.909Z,9.20
2023-03-06T13:16:14.912Z,9.32
2023-03-06T13:19:17.837Z,8.75
2023-03-06T13:22:28.636Z,9.55
2023-03-06T13:25:32.648Z,9.68
2023-03-06T13:28:47.623Z,9.80
2023-03-06T13:31:53.557Z,10.05
2023-03-06T13:34:55.978Z,10.27
2023-03-06T13:38:00.380Z,9.75
2023-03-06T13:41:21.182Z,9.75
2023-03-06T13:44:23.978Z,10.55
2023-03-06T13:47:55.751Z,10.23
2023-03-06T13:51:14.895Z,9.90
2023-03-06T13:54:35.954Z,9.27
2023-03-06T13:57:57.625Z,11.05
2023-03-06T14:01:03.597Z,9.77
2023-03-06T14:04:31.822Z,9.18
2023-03-06T14:07:47.140Z,10.25
2023-03-06T14:11:17.405Z,10.05
2023-03-06T14:14:38.444Z,10.35
2023-03-06T14:17:53.114Z,9.68
2023-03-06T14:20:59.373Z,10.07
2023-03-06T14:24:04.320Z,9.50
2023-03-06T14:27:07.138Z,10.95
2023-03-06T14:30:16.528Z,10.52
2023-03-06T14:33:45.043Z,10.23
2023-03-06T14:36:50.475Z,10.60
2023-03-06T14:39:53.017Z,10.05
2023-03-06T14:43:20.411Z,10.68
2023-03-06T14:46:23.262Z,11.38
2023-03-06T14:49:26.781Z,10.57
2023-03-06T14:52:29.292Z,10.93
2023-03-06T14:55:34.690Z,11.43
2023-03-06T14:58:41.815Z,11.12
2023-03-06T15:01:48.315Z,10.90
2023-03-06T15:05:00.317Z,10.73
2023-03-06T15:08:07.378Z,11.23
2023-03-06T15:11:09.623Z,10.68
2023-03-06T15:14:18.929Z,13.75
2023-03-06T15:17:29.527Z,10.60
2023-03-06T15:20:45.417Z,9.93
2023-03-06T15:23:53.010Z,10.23
2023-03-06T15:27:00.434Z,9.57
2023-03-06T15:30:29.573Z,10.75
2023-03-06T15:33:32.188Z,11.02
2023-03-06T15:36:35.927Z,10.73
2023-03-06T15:39:40.759Z,10.13
2023-03-06T15:42:43.388Z,10.93
2023-03-06T15:45:46.404Z,10.07
2023-03-06T15:49:03.107Z,11.35
2023-03-06T15:52:09.483Z,10.52
2023-03-06T15:55:13.129Z,9.88
2023-03-06T15:58:20.384Z,10.07
2023-03-06T16:01:23.018Z,10.45
2023-03-06T16:04:26.714Z,9.70
2023-03-06T16:07:28.985Z,10.95
2023-03-06T16:10:35.872Z,9.77
2023-03-06T16:13:38.134Z,11.27
2023-03-06T16:16:40.623Z,9.57
2023-03-06T16:19:43.413Z,10.57
2023-03-06T16:22:47.756Z,10.50
2023-03-06T16:25:52.989Z,9.50
2023-03-06T16:28:56.216Z,9.05
2023-03-06T16:31:58.946Z,9.95
2023-03-06T16:35:01.838Z,9.45
2023-03-06T16:38:04.436Z,10.32
2023-03-06T16:41:07.830Z,10.77
2023-03-06T16:44:10.528Z,8.35
2023-03-06T16:47:13.408Z,10.25
2023-03-06T16:50:26.089Z,9.80
2023-03-06T16:53:29.128Z,9.43
2023-03-06T16:56:31.756Z,10.57
2023-03-06T16:59:34.809Z,8.63
2023-03-06T17:02:38.550Z,9.45
2023-03-06T17:05:43.771Z,9.02
2023-03-06T17:08:48.360Z,9.38
2023-03-06T17:11:51.711Z,10.15
2023-03-06T17:14:54.293Z,10.85
2023-03-06T17:17:57.934Z,10.38
2023-03-06T17:21:01.485Z,10.25
2023-03-06T17:24:04.731Z,9.57
2023-03-06T17:27:07.761Z,10.02
2023-03-06T17:30:11.777Z,10.43
2023-03-06T17:33:14.316Z,10.38
2023-03-06T17:36:17.290Z,11.55
2023-03-06T17:39:19.764Z,10.32
2023-03-06T17:42:22.658Z,10.65
2023-03-06T17:45:24.857Z,10.55
2023-03-06T17:48:27.690Z,9.85
2023-03-06T17:51:30.145Z,10.23
2023-03-06T17:54:33.850Z,11.07
2023-03-06T17:57:36.055Z,10.63
2023-03-06T18:00:39.781Z,10.38
2023-03-06T18:03:47.984Z,10.68
2023-03-06T18:06:50.217Z,10.80
2023-03-06T18:09:52.850Z,11.07
2023-03-06T18:12:56.571Z,10.68
2023-03-06T18:15:59.800Z,10.38
2023-03-06T18:19:02.438Z,10.27
2023-03-06T18:22:06.108Z,9.95
2023-03-06T18:25:09.595Z,10.07
2023-03-06T18:28:12.947Z,10.88
2023-03-06T18:31:20.488Z,10.50
2023-03-06T18:34:23.797Z,10.27
2023-03-06T18:37:26.028Z,9.90
2023-03-06T18:40:28.998Z,11.25
2023-03-06T18:43:31.500Z,10.13
2023-03-06T18:46:37.021Z,10.40
2023-03-06T18:49:40.562Z,9.50
2023-03-06T18:52:44.590Z,10.13
2023-03-06T18:55:51.920Z,9.25
2023-03-06T18:58:55.027Z,8.85
2023-03-06T19:01:58.500Z,9.30
2023-03-06T19:05:01.144Z,10.25
2023-03-06T19:08:03.490Z,9.85
2023-03-06T19:11:13.026Z,9.10
2023-03-06T19:14:16.186Z,9.63
2023-03-06T19:17:18.913Z,9.25
2023-03-06T19:20:22.605Z,10.38
2023-03-06T19:23:25.469Z,11.00
2023-03-06T19:26:28.660Z,9.18
2023-03-06T19:29:32.536Z,9.48
2023-03-06T19:32:34.793Z,11.20
2023-03-06T19:35:38.612Z,10.32
2023-03-06T19:38:41.670Z,10.30
2023-03-06T19:41:48.310Z,10.40
2023-03-06T19:44:50.530Z,10.85
2023-03-06T19:47:55.848Z,10.65
2023-03-06T19:51:03.586Z,10.02
2023-03-06T19:54:06.458Z,11.77
2023-03-06T19:57:08.604Z,9.55
2023-03-06T20:00:11.713Z,10.40
2023-03-06T20:03:14.745Z,11.20
2023-03-06T20:06:19.711Z,11.63
2023-03-06T20:09:22.320Z,11.23
2023-03-06T20:12:24.960Z,10.95
2023-03-06T20:15:28.143Z,11.63
2023-03-06T20:18:31.155Z,11.85
2023-03-06T20:21:37.447Z,11.88
2023-03-06T20:24:40.151Z,11.77
2023-03-06T20:27:42.634Z,11.50
2023-03-06T20:30:45.362Z,13.55
2023-03-06T20:33:50.901Z,11.82
2023-03-06T20:36:53.999Z,11.48
2023-03-06T20:39:56.349Z,12.15
2023-03-06T20:42:59.058Z,11.12
2023-03-06T20:46:03.084Z,11.75
2023-03-06T20:49:07.266Z,11.70
2023-03-06T20:52:09.778Z,11.57
2023-03-06T20:55:12.733Z,10.45
2023-03-06T20:58:14.941Z,11.38
2023-03-06T21:01:19.742Z,11.38
2023-03-06T21:04:22.387Z,12.48
2023-03-06T21:07:25.524Z,13.77
2023-03-06T21:10:28.095Z,11.85
2023-03-06T21:13:30.819Z,13.05
2023-03-06T21:16:33.192Z,12.40
2023-03-06T21:19:36.990Z,11.40
2023-03-06T21:22:39.282Z,11.45
2023-03-06T21:25:50.975Z,13.27
2023-03-06T21:28:56.089Z,13.00
2023-03-06T21:31:58.601Z,13.20
2023-03-06T21:35:01.220Z,12.85
2023-03-06T21:38:03.869Z,12.40
2023-03-06T21:41:12.992Z,12.98
2023-03-06T21:44:15.613Z,11.90
2023-03-06T21:47:18.654Z,13.13
2023-03-06T21:50:23.303Z,14.50
2023-03-06T21:53:25.582Z,14.00
2023-03-06T21:56:28.925Z,13.90
2023-03-06T21:59:31.217Z,15.27
2023-03-06T22:02:35.252Z,14.60
2023-03-06T22:05:38.091Z,16.92
2023-03-06T22:08:41.326Z,16.35
2023-03-06T22:11:44.160Z,16.58
2023-03-06T22:14:46.460Z,17.40
2023-03-06T22:17:49.538Z,16.65
2023-03-06T22:20:52.232Z,17.30
2023-03-06T22:23:57.663Z,18.02
2023-03-06T22:27:00.271Z,17.40
2023-03-06T22:30:03.306Z,17.70
2023-03-06T22:33:06.348Z,16.80
2023-03-06T22:36:12.252Z,17.02
2023-03-06T22:39:17.217Z,17.50
2023-03-06T22:42:20.043Z,17.30
2023-03-06T22:45:22.798Z,17.85
2023-03-06T22:48:25.654Z,18.25
2023-03-06T22:51:28.850Z,16.15
2023-03-06T22:54:31.433Z,17.10
2023-03-06T22:57:33.670Z,17.20
2023-03-06T23:00:36.546Z,16.80
2023-03-06T23:03:40.813Z,17.37
2023-03-06T23:06:44.632Z,17.12
2023-03-06T23:09:46.958Z,17.40
2023-03-06T23:13:07.886Z,15.90
2023-03-06T23:16:28.826Z,18.15
2023-03-06T23:19:49.968Z,18.80
2023-03-06T23:23:11.254Z,18.70
2023-03-06T23:26:17.725Z,17.92
2023-03-06T23:29:20.487Z,17.85
2023-03-06T23:32:23.266Z,19.12
2023-03-06T23:35:26.224Z,18.12
2023-03-06T23:38:32.296Z,18.73
2023-03-06T23:41:34.818Z,19.10
2023-03-06T23:44:37.012Z,19.70
2023-03-06T23:47:39.843Z,20.60
2023-03-06T23:50:42.146Z,18.00
2023-03-06T23:53:46.247Z,19.00
2023-03-06T23:56:48.605Z,18.37
2023-03-06T23:59:52.297Z,17.35
